Time;durP1;ratioP1;P1;durP2;ratioP2;P2;SDS_P1;SDS_P2;PMS_P1;PMS_P2;Temp;Humidity;BMP_temperature;BMP_pressure;BME280_temperature;BME280_humidity;BME280_pressure;Samples;Min_cycle;Max_cycle;Signal;HPM_P1;HPM_P2
2022/05/19 00:01:44;;;;;;;15.00;3.97;;;;;;;;;;5033168;28;20040;-71
2022/05/19 00:04:09;;;;;;;8.55;3.70;;;;;;;;;;5032686;28;20100;-70
2022/05/19 00:06:34;;;;;;;16.75;3.80;;;;;;;;;;5032658;28;20079;-70
2022/05/19 00:09:00;;;;;;;8.73;3.90;;;;;;;;;;5032435;28;20049;-72
2022/05/19 00:11:32;;;;;;;16.13;4.30;;;;;;;;;;5032275;28;20049;-71
2022/05/19 00:13:57;;;;;;;12.23;3.70;;;;;;;;;;5032522;28;20035;-70
2022/05/19 00:16:23;;;;;;;8.75;4.00;;;;;;;;;;5031959;28;20026;-70
2022/05/19 00:18:48;;;;;;;9.90;4.32;;;;;;;;;;5032667;28;20108;-70
2022/05/19 00:21:14;;;;;;;10.27;3.97;;;;;;;;;;5032462;28;20108;-70
2022/05/19 00:23:39;;;;;;;11.82;3.83;;;;;;;;;;5032534;28;20025;-70
2022/05/19 00:26:05;;;;;;;9.75;3.78;;;;;;;;;;5032343;28;20538;-70
2022/05/19 00:28:30;;;;;;;10.73;4.03;;;;;;;;;;5032173;28;20025;-71
2022/05/19 00:30:56;;;;;;;11.70;3.70;;;;;;;;;;5032281;28;20563;-71
2022/05/19 00:33:21;;;;;;;9.55;4.00;;;;;;;;;;5031941;28;20486;-71
2022/05/19 00:35:47;;;;;;;10.95;4.20;;;;;;;;;;5032047;28;20031;-70
2022/05/19 00:38:12;;;;;;;7.57;4.18;;;;;;;;;;5032294;28;20041;-71
2022/05/19 00:40:43;;;;;;;10.77;4.25;;;;;;;;;;5031662;28;20029;-73
2022/05/19 00:43:09;;;;;;;10.40;4.47;;;;;;;;;;5031522;28;20058;-70
2022/05/19 00:45:44;;;;;;;8.63;4.03;;;;;;;;;;5031927;28;20030;-70
2022/05/19 00:48:22;;;;;;;12.23;4.20;;;;;;;;;;5032039;28;20017;-70
2022/05/19 00:50:55;;;;;;;9.85;3.97;;;;;;;;;;5032077;28;20025;-70
2022/05/19 00:53:31;;;;;;;9.15;4.10;;;;;;;;;;5031498;28;20040;-71
2022/05/19 00:56:00;;;;;;;11.57;4.07;;;;;;;;;;5031955;28;20385;-70
2022/05/19 00:58:31;;;;;;;8.20;4.63;;;;;;;;;;5031943;28;20115;-70
2022/05/19 01:00:57;;;;;;;9.27;4.50;;;;;;;;;;5031673;28;20789;-69
2022/05/19 01:03:25;;;;;;;11.88;4.35;;;;;;;;;;5031258;28;20034;-71
2022/05/19 01:05:55;;;;;;;10.00;4.60;;;;;;;;;;5031432;28;20030;-69
2022/05/19 01:08:24;;;;;;;;;;;;;;;;;;5031941;28;20087;-69
2022/05/19 01:10:52;;;;;;;13.65;4.85;;;;;;;;;;5031544;28;19916;-70
2022/05/19 01:13:18;;;;;;;9.25;4.82;;;;;;;;;;5031310;28;20032;-71
2022/05/19 01:15:47;;;;;;;13.50;5.55;;;;;;;;;;5031649;28;20030;-70
2022/05/19 01:18:14;;;;;;;11.75;6.10;;;;;;;;;;5030086;28;20116;-70
2022/05/19 01:20:42;;;;;;;11.13;6.22;;;;;;;;;;5031317;28;20093;-70
2022/05/19 01:23:14;;;;;;;11.10;6.53;;;;;;;;;;5030980;28;20034;-70
2022/05/19 01:25:52;;;;;;;11.65;6.07;;;;;;;;;;5031461;28;20256;-70
2022/05/19 01:28:17;;;;;;;11.45;6.05;;;;;;;;;;5030384;28;20068;-71
2022/05/19 01:30:45;;;;;;;11.45;5.95;;;;;;;;;;5031011;28;20064;-70
2022/05/19 01:33:11;;;;;;;13.77;6.60;;;;;;;;;;5030732;28;20163;-70
2022/05/19 01:35:36;;;;;;;13.75;7.13;;;;;;;;;;5030832;28;20708;-69
2022/05/19 01:38:08;;;;;;;12.65;7.68;;;;;;;;;;5030910;28;20025;-70
2022/05/19 01:40:51;;;;;;;16.17;7.75;;;;;;;;;;5031049;28;20056;-70
2022/05/19 01:43:19;;;;;;;14.90;7.65;;;;;;;;;;5030450;28;20063;-71
2022/05/19 01:45:58;;;;;;;16.20;7.22;;;;;;;;;;5031173;28;20358;-70
2022/05/19 01:48:42;;;;;;;15.73;7.78;;;;;;;;;;5030836;28;20176;-69
2022/05/19 01:51:29;;;;;;;14.27;7.65;;;;;;;;;;5030591;28;20025;-71
2022/05/19 01:54:30;;;;;;;14.85;7.38;;;;;;;;;;5030262;28;20037;-71
2022/05/19 01:57:11;;;;;;;13.38;7.50;;;;;;;;;;5018669;28;20087;-70
2022/05/19 01:59:51;;;;;;;18.73;7.90;;;;;;;;;;5030993;28;20025;-71
2022/05/19 02:02:39;;;;;;;19.83;8.20;;;;;;;;;;5030450;28;20519;-71
2022/05/19 02:05:18;;;;;;;14.38;7.20;;;;;;;;;;5030536;28;20493;-71
2022/05/19 02:07:46;;;;;;;15.75;7.57;;;;;;;;;;5030255;28;20033;-73
2022/05/19 02:10:20;;;;;;;16.15;7.90;;;;;;;;;;5030742;28;20025;-72
2022/05/19 02:12:48;;;;;;;13.98;7.15;;;;;;;;;;5029971;28;20384;-72
2022/05/19 02:15:17;;;;;;;15.13;7.32;;;;;;;;;;5030376;28;20044;-73
2022/05/19 02:17:44;;;;;;;16.42;7.82;;;;;;;;;;5030209;28;20412;-72
2022/05/19 02:20:12;;;;;;;15.07;7.60;;;;;;;;;;5030385;28;20104;-71
2022/05/19 02:22:40;;;;;;;19.92;8.00;;;;;;;;;;5029999;28;20029;-72
2022/05/19 02:25:23;;;;;;;17.48;7.93;;;;;;;;;;5030121;28;20128;-73
2022/05/19 02:28:21;;;;;;;15.40;7.68;;;;;;;;;;5035586;28;20021;-71
2022/05/19 02:30:46;;;;;;;13.55;7.22;;;;;;;;;;5022764;28;20033;-71
2022/05/19 02:33:14;;;;;;;17.20;7.32;;;;;;;;;;5039071;28;20079;-72
2022/05/19 02:35:41;;;;;;;15.57;7.15;;;;;;;;;;5039162;28;20180;-71
2022/05/19 02:38:06;;;;;;;17.13;7.55;;;;;;;;;;5039819;28;20029;-71
2022/05/19 02:40:36;;;;;;;12.80;7.25;;;;;;;;;;5039252;28;20044;-71
2022/05/19 02:43:02;;;;;;;17.13;6.93;;;;;;;;;;5039766;28;20038;-71
2022/05/19 02:45:28;;;;;;;13.80;7.00;;;;;;;;;;5036879;28;20048;-71
2022/05/19 02:47:54;;;;;;;11.63;6.57;;;;;;;;;;5030794;28;20034;-72
2022/05/19 02:50:20;;;;;;;13.73;6.53;;;;;;;;;;5029831;28;20542;-72
2022/05/19 02:52:46;;;;;;;14.65;7.38;;;;;;;;;;5029654;28;20036;-72
2022/05/19 02:55:12;;;;;;;15.70;7.55;;;;;;;;;;5029795;28;20029;-72
2022/05/19 02:57:37;;;;;;;15.38;6.80;;;;;;;;;;5029669;28;20033;-71
2022/05/19 03:00:06;;;;;;;14.95;7.07;;;;;;;;;;5029769;28;20029;-73
2022/05/19 03:02:32;;;;;;;15.45;7.15;;;;;;;;;;5029611;28;20064;-72
2022/05/19 03:04:58;;;;;;;13.77;7.10;;;;;;;;;;5029642;28;20473;-71
2022/05/19 03:07:24;;;;;;;13.80;6.80;;;;;;;;;;5028249;28;20276;-72
2022/05/19 03:09:50;;;;;;;16.17;7.05;;;;;;;;;;5029751;28;20057;-73
2022/05/19 03:12:15;;;;;;;13.48;6.85;;;;;;;;;;5029659;28;20428;-72
2022/05/19 03:14:41;;;;;;;13.98;6.30;;;;;;;;;;5029447;28;20041;-71
2022/05/19 03:17:07;;;;;;;14.43;6.88;;;;;;;;;;5029536;28;20037;-72
2022/05/19 03:19:33;;;;;;;13.27;6.40;;;;;;;;;;5029782;28;20381;-71
2022/05/19 03:21:59;;;;;;;14.30;6.90;;;;;;;;;;5029365;28;20029;-73
2022/05/19 03:24:24;;;;;;;17.33;6.47;;;;;;;;;;5029304;28;20028;-71
2022/05/19 03:26:50;;;;;;;16.05;6.70;;;;;;;;;;5029846;28;20036;-73
2022/05/19 03:29:15;;;;;;;16.80;6.75;;;;;;;;;;5029465;28;20117;-72
2022/05/19 03:31:41;;;;;;;11.88;6.65;;;;;;;;;;5029598;28;20073;-72
2022/05/19 03:34:06;;;;;;;16.55;7.10;;;;;;;;;;5029359;28;20195;-72
2022/05/19 03:36:31;;;;;;;12.88;6.75;;;;;;;;;;5029105;28;20594;-72
2022/05/19 03:38:57;;;;;;;16.67;6.68;;;;;;;;;;5029554;28;20032;-72
2022/05/19 03:41:23;;;;;;;15.52;6.90;;;;;;;;;;5029266;28;20025;-71
2022/05/19 03:43:48;;;;;;;15.75;6.90;;;;;;;;;;5029363;28;20052;-71
2022/05/19 03:46:14;;;;;;;15.07;7.10;;;;;;;;;;5029544;28;20048;-71
2022/05/19 03:48:40;;;;;;;13.88;6.70;;;;;;;;;;5029267;28;20196;-71
2022/05/19 03:51:12;;;;;;;13.65;6.80;;;;;;;;;;5029975;28;20025;-71
2022/05/19 03:53:38;;;;;;;13.55;6.70;;;;;;;;;;5032397;28;20036;-72
2022/05/19 03:56:04;;;;;;;14.55;6.88;;;;;;;;;;5032779;28;20030;-72
2022/05/19 03:58:30;;;;;;;13.38;6.70;;;;;;;;;;5033011;28;20032;-71
2022/05/19 04:00:55;;;;;;;15.05;6.82;;;;;;;;;;5032829;28;20085;-71
2022/05/19 04:03:22;;;;;;;15.85;7.05;;;;;;;;;;5032740;28;20056;-71
2022/05/19 04:05:47;;;;;;;14.40;6.93;;;;;;;;;;5032481;28;20033;-71
2022/05/19 04:08:13;;;;;;;14.43;6.90;;;;;;;;;;5032720;28;20021;-72
2022/05/19 04:10:44;;;;;;;14.25;7.38;;;;;;;;;;5032596;28;20076;-71
2022/05/19 04:13:10;;;;;;;15.73;7.10;;;;;;;;;;5031766;28;20105;-71
2022/05/19 04:15:36;;;;;;;18.92;6.80;;;;;;;;;;5032687;28;20053;-71
2022/05/19 04:18:02;;;;;;;12.15;6.50;;;;;;;;;;5032326;28;20412;-71
2022/05/19 04:20:30;;;;;;;17.45;6.65;;;;;;;;;;5032356;28;20025;-72
2022/05/19 04:22:57;;;;;;;17.23;6.80;;;;;;;;;;5032441;28;20068;-72
2022/05/19 04:25:23;;;;;;;14.55;6.50;;;;;;;;;;5032229;28;20124;-72
2022/05/19 04:27:48;;;;;;;17.25;7.38;;;;;;;;;;5032267;28;20108;-73
2022/05/19 04:30:14;;;;;;;13.57;6.80;;;;;;;;;;5032022;28;20397;-73
2022/05/19 04:32:39;;;;;;;14.35;7.00;;;;;;;;;;5032149;28;20017;-71
2022/05/19 04:35:05;;;;;;;14.90;7.00;;;;;;;;;;5032286;28;20136;-71
2022/05/19 04:37:30;;;;;;;17.73;7.38;;;;;;;;;;5031977;28;20025;-72
2022/05/19 04:39:55;;;;;;;14.63;6.95;;;;;;;;;;5032225;28;20026;-73
2022/05/19 04:42:21;;;;;;;14.73;6.63;;;;;;;;;;5032004;28;20051;-71
2022/05/19 04:44:46;;;;;;;18.00;7.07;;;;;;;;;;5031660;28;20094;-71
2022/05/19 04:47:12;;;;;;;16.38;6.72;;;;;;;;;;5032053;28;20048;-73
2022/05/19 04:49:37;;;;;;;15.75;7.15;;;;;;;;;;5031960;28;20516;-70
2022/05/19 04:52:03;;;;;;;13.90;6.93;;;;;;;;;;5032019;28;20048;-72
2022/05/19 04:54:28;;;;;;;15.43;6.80;;;;;;;;;;5031643;28;20040;-72
2022/05/19 04:56:54;;;;;;;15.73;7.28;;;;;;;;;;5032008;28;20159;-70
2022/05/19 04:59:19;;;;;;;14.00;6.55;;;;;;;;;;5032110;28;20512;-72
2022/05/19 05:01:47;;;;;;;17.30;6.65;;;;;;;;;;5031651;28;20022;-74
2022/05/19 05:04:14;;;;;;;15.30;6.68;;;;;;;;;;5030045;28;20033;-76
2022/05/19 05:06:40;;;;;;;18.67;6.72;;;;;;;;;;5031741;28;20029;-76
2022/05/19 05:09:05;;;;;;;15.80;6.65;;;;;;;;;;5032084;28;20052;-76
2022/05/19 05:11:31;;;;;;;15.90;6.88;;;;;;;;;;5032196;28;20461;-70
2022/05/19 05:13:57;;;;;;;13.93;6.85;;;;;;;;;;5031613;28;20059;-68
2022/05/19 05:16:23;;;;;;;17.77;6.80;;;;;;;;;;5031745;28;20241;-69
2022/05/19 05:18:48;;;;;;;18.42;6.53;;;;;;;;;;5031518;28;20497;-85
2022/05/19 05:21:13;;;;;;;12.68;6.60;;;;;;;;;;5031278;28;20079;-85
2022/05/19 05:23:42;;;;;;;19.27;6.75;;;;;;;;;;5031662;28;20030;-68
2022/05/19 05:26:08;;;;;;;14.65;6.60;;;;;;;;;;5031477;28;20512;-73
2022/05/19 05:28:35;;;;;;;18.08;6.55;;;;;;;;;;5031465;28;20044;-75
2022/05/19 05:31:01;;;;;;;14.02;6.70;;;;;;;;;;5031278;28;20116;-73
2022/05/19 05:33:27;;;;;;;14.25;6.40;;;;;;;;;;5030968;28;20064;-78
2022/05/19 05:35:52;;;;;;;12.07;5.93;;;;;;;;;;5030979;28;20143;-73
2022/05/19 05:38:18;;;;;;;17.35;6.95;;;;;;;;;;5030978;28;20116;-73
2022/05/19 05:40:44;;;;;;;15.95;6.38;;;;;;;;;;5031000;28;20017;-71
2022/05/19 05:43:12;;;;;;;19.45;6.95;;;;;;;;;;5030783;28;20068;-72
2022/05/19 05:45:39;;;;;;;15.75;6.38;;;;;;;;;;5031157;28;20030;-78
2022/05/19 05:48:05;;;;;;;15.88;6.22;;;;;;;;;;5031321;28;20064;-80
2022/05/19 05:50:31;;;;;;;17.73;6.10;;;;;;;;;;5031408;28;20027;-81
2022/05/19 05:52:56;;;;;;;14.95;5.97;;;;;;;;;;5031003;28;20029;-80
2022/05/19 05:55:22;;;;;;;13.10;6.10;;;;;;;;;;5031048;28;20116;-80
2022/05/19 05:57:47;;;;;;;13.45;5.78;;;;;;;;;;5031046;28;20114;-80
2022/05/19 06:00:13;;;;;;;12.95;5.65;;;;;;;;;;5030944;28;20021;-79
2022/05/19 06:02:39;;;;;;;18.92;6.07;;;;;;;;;;5031218;28;20029;-81
2022/05/19 06:05:05;;;;;;;18.23;5.60;;;;;;;;;;5030755;28;20401;-81
2022/05/19 06:07:30;;;;;;;19.27;6.00;;;;;;;;;;5030803;28;20021;-79
2022/05/19 06:09:56;;;;;;;19.00;6.18;;;;;;;;;;5030784;28;20021;-78
2022/05/19 06:12:23;;;;;;;13.85;5.72;;;;;;;;;;5030537;28;20093;-76
2022/05/19 06:14:49;;;;;;;19.77;6.03;;;;;;;;;;5029722;28;20033;-70
2022/05/19 06:17:15;;;;;;;13.88;6.00;;;;;;;;;;5030562;28;20052;-82
2022/05/19 06:19:40;;;;;;;15.13;5.55;;;;;;;;;;5030789;28;20052;-77
2022/05/19 06:22:06;;;;;;;18.70;6.05;;;;;;;;;;5030348;28;20018;-80
2022/05/19 06:24:33;;;;;;;16.38;5.65;;;;;;;;;;5030093;28;20037;-75
2022/05/19 06:26:58;;;;;;;12.75;5.70;;;;;;;;;;5030252;28;20091;-74
2022/05/19 06:29:24;;;;;;;15.27;5.60;;;;;;;;;;5030191;28;20025;-81
2022/05/19 06:31:49;;;;;;;15.68;5.22;;;;;;;;;;5030362;28;20236;-81
2022/05/19 06:34:15;;;;;;;14.82;5.72;;;;;;;;;;5030030;28;20029;-79
2022/05/19 06:36:40;;;;;;;14.68;5.40;;;;;;;;;;5030093;28;20060;-75
2022/05/19 06:39:07;;;;;;;13.60;4.80;;;;;;;;;;5030356;28;20108;-82
2022/05/19 06:44:17;;;;;;;12.73;5.03;;;;;;;;;;5029835;28;20144;-69
2022/05/19 06:46:44;;;;;;;15.02;5.13;;;;;;;;;;5030102;28;20033;-80
2022/05/19 06:49:10;;;;;;;10.57;4.38;;;;;;;;;;5030102;28;20377;-77
2022/05/19 06:51:39;;;;;;;14.65;4.70;;;;;;;;;;5030031;28;20030;-78
2022/05/19 06:54:05;;;;;;;16.70;4.78;;;;;;;;;;5029764;28;20116;-77
2022/05/19 06:56:30;;;;;;;20.05;5.30;;;;;;;;;;5030048;28;20100;-75
2022/05/19 06:58:56;;;;;;;13.02;4.53;;;;;;;;;;5030150;28;20028;-75
2022/05/19 07:01:22;;;;;;;14.10;4.82;;;;;;;;;;5029824;28;20022;-74
2022/05/19 07:03:49;;;;;;;16.77;4.38;;;;;;;;;;5029779;28;20086;-74
2022/05/19 07:06:14;;;;;;;18.08;4.85;;;;;;;;;;5029444;28;20461;-73
2022/05/19 07:08:40;;;;;;;13.05;4.35;;;;;;;;;;5028945;28;20029;-73
2022/05/19 07:11:06;;;;;;;11.85;4.45;;;;;;;;;;5017795;28;20037;-73
2022/05/19 07:13:31;;;;;;;14.40;4.00;;;;;;;;;;5024198;28;20041;-72
2022/05/19 07:15:57;;;;;;;17.13;4.70;;;;;;;;;;5008094;28;20053;-72
2022/05/19 07:18:23;;;;;;;12.63;4.45;;;;;;;;;;5008240;28;20053;-72
2022/05/19 07:20:49;;;;;;;16.83;4.45;;;;;;;;;;5008093;28;20109;-72
2022/05/19 07:23:24;;;;;;;17.58;4.38;;;;;;;;;;5009145;28;20029;-75
2022/05/19 07:25:50;;;;;;;12.20;4.50;;;;;;;;;;5009191;28;20041;-73
2022/05/19 07:28:18;;;;;;;11.43;4.20;;;;;;;;;;5013810;28;20080;-77
2022/05/19 07:30:47;;;;;;;17.98;4.50;;;;;;;;;;5013528;28;20482;-72
2022/05/19 07:33:15;;;;;;;15.73;4.53;;;;;;;;;;5013578;28;20026;-74
2022/05/19 07:35:42;;;;;;;14.68;4.30;;;;;;;;;;5013499;28;20417;-72
2022/05/19 07:38:07;;;;;;;17.20;4.05;;;;;;;;;;5013679;28;20030;-73
2022/05/19 07:40:33;;;;;;;12.35;4.47;;;;;;;;;;5013463;28;20496;-74
2022/05/19 07:43:35;;;;;;;15.18;4.30;;;;;;;;;;5011990;28;20024;-74
2022/05/19 07:45:44;;;;;;;22.30;4.95;;;;;;;;;;5013139;28;20528;-73
2022/05/19 07:48:10;;;;;;;17.17;4.28;;;;;;;;;;5013379;28;20059;-75
2022/05/19 07:50:35;;;;;;;15.20;4.50;;;;;;;;;;5013026;28;20018;-72
2022/05/19 07:53:00;;;;;;;11.93;4.30;;;;;;;;;;5013150;28;20044;-75
2022/05/19 07:55:26;;;;;;;10.63;4.13;;;;;;;;;;5012881;28;20044;-72
2022/05/19 07:57:51;;;;;;;15.38;4.15;;;;;;;;;;5013088;28;20113;-74
2022/05/19 08:00:17;;;;;;;14.07;4.05;;;;;;;;;;5013078;28;20018;-74
2022/05/19 08:02:43;;;;;;;14.60;3.90;;;;;;;;;;5013303;28;20030;-74
2022/05/19 08:05:09;;;;;;;14.60;4.00;;;;;;;;;;5012627;28;20172;-75
2022/05/19 08:07:34;;;;;;;20.23;4.15;;;;;;;;;;5012788;28;20077;-74
2022/05/19 08:15:36;;;;;;;17.80;3.90;;;;;;;;;;5012136;28;20080;-74
2022/05/19 08:18:08;;;;;;;20.60;4.80;;;;;;;;;;5012975;28;20021;-75
2022/05/19 08:20:35;;;;;;;15.98;4.35;;;;;;;;;;5012670;28;20045;-72
2022/05/19 08:23:01;;;;;;;14.55;4.22;;;;;;;;;;5012496;28;20393;-74
2022/05/19 08:25:27;;;;;;;25.13;4.50;;;;;;;;;;5012372;28;20025;-72
2022/05/19 08:27:55;;;;;;;19.98;4.53;;;;;;;;;;5012634;28;20116;-70
2022/05/19 08:30:21;;;;;;;13.00;4.30;;;;;;;;;;5012042;28;20026;-73
2022/05/19 08:32:47;;;;;;;13.70;4.28;;;;;;;;;;5012677;28;20032;-69
2022/05/19 08:35:13;;;;;;;34.55;4.97;;;;;;;;;;5011884;28;20037;-69
2022/05/19 08:37:38;;;;;;;20.80;4.55;;;;;;;;;;5011941;28;20058;-71
2022/05/19 08:40:05;;;;;;;16.50;4.40;;;;;;;;;;5012301;28;20034;-73
2022/05/19 08:42:36;;;;;;;16.35;3.90;;;;;;;;;;5011953;28;20022;-74
2022/05/19 08:45:05;;;;;;;15.88;4.40;;;;;;;;;;5011846;28;20528;-71
2022/05/19 08:47:37;;;;;;;24.48;4.82;;;;;;;;;;5012000;28;20022;-74
2022/05/19 08:50:05;;;;;;;20.15;4.88;;;;;;;;;;5011817;28;20022;-73
2022/05/19 08:52:43;;;;;;;13.63;4.68;;;;;;;;;;5011793;28;20071;-74
2022/05/19 08:55:13;;;;;;;13.77;4.60;;;;;;;;;;5011499;28;20478;-70
2022/05/19 08:57:45;;;;;;;13.35;4.50;;;;;;;;;;5012032;28;20096;-73
2022/05/19 09:00:17;;;;;;;14.93;4.75;;;;;;;;;;5012087;28;20088;-72
2022/05/19 09:02:58;;;;;;;23.30;4.90;;;;;;;;;;5011718;28;20038;-72
2022/05/19 09:05:51;;;;;;;20.60;5.00;;;;;;;;;;5011267;28;20080;-73
2022/05/19 09:08:35;;;;;;;20.05;4.93;;;;;;;;;;5011618;28;20036;-70
2022/05/19 09:11:20;;;;;;;16.42;4.53;;;;;;;;;;5011692;28;20030;-74
2022/05/19 09:13:53;;;;;;;14.35;4.72;;;;;;;;;;5011705;28;20295;-68
2022/05/19 09:16:31;;;;;;;12.05;4.55;;;;;;;;;;5011287;28;20553;-73
2022/05/19 09:19:06;;;;;;;12.90;4.60;;;;;;;;;;5011694;28;20029;-73
2022/05/19 09:21:32;;;;;;;19.48;4.75;;;;;;;;;;5011213;28;20029;-72
2022/05/19 09:23:57;;;;;;;13.43;4.50;;;;;;;;;;5011513;28;20034;-72
2022/05/19 09:26:25;;;;;;;14.65;4.13;;;;;;;;;;5011075;28;20120;-73
2022/05/19 09:28:59;;;;;;;14.23;4.30;;;;;;;;;;5011517;28;20034;-74
2022/05/19 09:31:55;;;;;;;10.85;4.40;;;;;;;;;;5011312;28;20022;-74
2022/05/19 09:34:27;;;;;;;15.10;4.60;;;;;;;;;;5011221;28;20495;-74
2022/05/19 09:37:05;;;;;;;13.73;4.63;;;;;;;;;;5011034;28;20311;-73
2022/05/19 09:39:35;;;;;;;13.85;4.00;;;;;;;;;;5011492;28;20156;-73
2022/05/19 09:42:05;;;;;;;13.47;4.50;;;;;;;;;;5011099;28;20022;-73
2022/05/19 09:44:34;;;;;;;16.20;4.35;;;;;;;;;;5010904;28;20054;-74
2022/05/19 09:47:14;;;;;;;15.98;4.22;;;;;;;;;;5010874;28;20516;-73
2022/05/19 09:49:44;;;;;;;14.13;4.15;;;;;;;;;;5010661;28;20053;-72
2022/05/19 09:52:18;;;;;;;16.13;4.57;;;;;;;;;;5010842;28;20109;-73
2022/05/19 09:54:51;;;;;;;11.20;3.72;;;;;;;;;;5010625;28;20520;-74
2022/05/19 09:57:24;;;;;;;16.38;4.68;;;;;;;;;;5010690;28;20056;-75
2022/05/19 09:59:52;;;;;;;14.32;4.28;;;;;;;;;;5010660;28;20445;-74
2022/05/19 10:02:24;;;;;;;15.02;4.20;;;;;;;;;;5010630;28;20026;-74
2022/05/19 10:04:51;;;;;;;12.85;4.28;;;;;;;;;;5010788;28;20109;-73
2022/05/19 10:07:44;;;;;;;17.90;4.50;;;;;;;;;;5009128;28;20030;-71
2022/05/19 10:11:04;;;;;;;16.95;4.35;;;;;;;;;;5010627;28;20034;-70
2022/05/19 10:13:38;;;;;;;16.25;4.40;;;;;;;;;;4994651;28;20042;-74
2022/05/19 10:16:22;;;;;;;13.15;3.83;;;;;;;;;;5010246;28;20481;-73
2022/05/19 10:18:48;;;;;;;11.48;4.22;;;;;;;;;;5010706;28;20033;-73
2022/05/19 10:21:37;;;;;;;16.77;4.10;;;;;;;;;;5010376;28;20022;-73
2022/05/19 10:24:40;;;;;;;14.05;3.85;;;;;;;;;;5010461;28;20441;-73
2022/05/19 10:33:18;;;;;;;19.13;4.50;;;;;;;;;;5010388;28;20044;-75
2022/05/19 10:36:22;;;;;;;15.35;4.35;;;;;;;;;;5009733;28;20378;-73
2022/05/19 10:39:03;;;;;;;14.25;4.20;;;;;;;;;;4999121;28;20041;-73
2022/05/19 10:41:52;;;;;;;11.95;3.72;;;;;;;;;;5010328;28;20044;-70
2022/05/19 10:44:33;;;;;;;15.18;4.40;;;;;;;;;;5010106;28;20499;-72
2022/05/19 10:47:36;;;;;;;12.77;3.90;;;;;;;;;;5010002;28;20112;-73
2022/05/19 10:50:12;;;;;;;14.63;3.80;;;;;;;;;;5009938;28;20032;-73
2022/05/19 10:53:12;;;;;;;13.25;4.40;;;;;;;;;;5010303;28;20065;-74
2022/05/19 10:55:49;;;;;;;18.83;4.63;;;;;;;;;;5009959;28;20034;-74
2022/05/19 10:58:35;;;;;;;19.27;3.83;;;;;;;;;;5010136;28;20022;-73
2022/05/19 11:01:37;;;;;;;23.08;4.10;;;;;;;;;;5012549;28;20366;-73
2022/05/19 11:04:22;;;;;;;13.48;3.90;;;;;;;;;;5014169;28;20037;-74
2022/05/19 11:07:18;;;;;;;19.52;3.78;;;;;;;;;;5013596;28;20037;-74
2022/05/19 11:10:01;;;;;;;14.20;3.55;;;;;;;;;;5014106;28;20141;-72
2022/05/19 11:12:38;;;;;;;9.07;3.70;;;;;;;;;;5014011;28;20030;-74
2022/05/19 11:15:04;;;;;;;15.48;3.90;;;;;;;;;;5013790;28;20025;-74
2022/05/19 11:17:56;;;;;;;16.38;4.28;;;;;;;;;;5013836;28;20354;-74
2022/05/19 11:20:44;;;;;;;11.50;3.97;;;;;;;;;;5013840;28;20432;-74
2022/05/19 11:23:40;;;;;;;12.57;3.95;;;;;;;;;;5013810;28;20036;-75
2022/05/19 11:26:23;;;;;;;11.80;4.55;;;;;;;;;;5013326;28;20497;-71
2022/05/19 11:29:26;;;;;;;16.85;3.90;;;;;;;;;;5013880;28;20030;-72
2022/05/19 11:32:04;;;;;;;17.45;4.30;;;;;;;;;;5013864;28;20033;-73
2022/05/19 11:35:04;;;;;;;13.60;3.85;;;;;;;;;;5013529;28;20057;-74
2022/05/19 11:37:38;;;;;;;17.08;4.20;;;;;;;;;;5009066;28;20038;-74
2022/05/19 11:40:15;;;;;;;14.38;4.05;;;;;;;;;;5013300;28;20590;-72
2022/05/19 11:42:58;;;;;;;17.08;3.97;;;;;;;;;;5013338;28;20029;-74
2022/05/19 11:45:40;;;;;;;11.48;3.75;;;;;;;;;;5012941;28;20450;-74
2022/05/19 11:57:23;;;;;;;15.90;4.10;;;;;;;;;;5012867;28;20068;-72
2022/05/19 11:59:52;;;;;;;20.23;4.13;;;;;;;;;;5012945;28;20030;-68
2022/05/19 12:02:22;;;;;;;13.88;4.20;;;;;;;;;;5012965;28;20026;-71
2022/05/19 12:04:52;;;;;;;12.60;3.75;;;;;;;;;;5012968;28;20027;-69
2022/05/19 12:07:36;;;;;;;11.73;3.83;;;;;;;;;;5012626;28;20040;-74
2022/05/19 12:10:03;;;;;;;13.77;4.28;;;;;;;;;;5012900;28;20395;-72
2022/05/19 12:12:38;;;;;;;10.18;4.13;;;;;;;;;;5012084;28;20017;-68
2022/05/19 12:15:23;;;;;;;12.20;4.00;;;;;;;;;;5012679;28;20037;-74
2022/05/19 12:18:07;;;;;;;13.02;4.30;;;;;;;;;;5012240;28;20040;-71
2022/05/19 12:20:38;;;;;;;16.88;4.30;;;;;;;;;;5012515;28;20038;-75
2022/05/19 12:23:09;;;;;;;11.38;3.97;;;;;;;;;;5012624;28;20375;-71
2022/05/19 12:25:37;;;;;;;16.60;4.50;;;;;;;;;;5012890;28;20037;-69
2022/05/19 12:28:28;;;;;;;8.75;4.15;;;;;;;;;;5012358;28;20054;-69
2022/05/19 12:33:57;;;;;;;15.48;4.43;;;;;;;;;;5012518;28;20036;-75
2022/05/19 12:36:38;;;;;;;20.83;4.18;;;;;;;;;;5012141;28;20025;-74
2022/05/19 12:39:09;;;;;;;12.07;3.70;;;;;;;;;;5012055;28;20022;-75
2022/05/19 12:41:53;;;;;;;15.65;4.50;;;;;;;;;;5012339;28;20516;-74
2022/05/19 12:44:39;;;;;;;12.30;4.47;;;;;;;;;;5012273;28;20050;-71
2022/05/19 12:47:10;;;;;;;19.77;4.82;;;;;;;;;;5012067;28;20547;-71
2022/05/19 12:49:36;;;;;;;20.60;4.80;;;;;;;;;;5012284;28;20022;-73
2022/05/19 12:52:24;;;;;;;19.67;4.68;;;;;;;;;;5011939;28;20026;-75
2022/05/19 12:55:22;;;;;;;18.30;4.60;;;;;;;;;;5011772;28;20349;-72
2022/05/19 12:57:49;;;;;;;17.35;4.50;;;;;;;;;;5002233;28;20038;-70
2022/05/19 13:00:26;;;;;;;17.73;4.43;;;;;;;;;;5011919;28;20366;-75
2022/05/19 13:03:17;;;;;;;12.90;4.30;;;;;;;;;;5011909;28;20030;-73
2022/05/19 13:05:52;;;;;;;14.65;4.22;;;;;;;;;;5011693;28;20106;-74
2022/05/19 13:08:33;;;;;;;11.73;4.18;;;;;;;;;;5011410;28;20033;-73
2022/05/19 13:11:03;;;;;;;14.13;4.45;;;;;;;;;;5011580;28;20029;-75
2022/05/19 13:13:41;;;;;;;13.52;4.07;;;;;;;;;;5011543;28;20026;-75
2022/05/19 13:16:19;;;;;;;13.13;4.50;;;;;;;;;;5011856;28;20030;-74
2022/05/19 13:18:52;;;;;;;20.17;4.53;;;;;;;;;;5011847;28;20025;-76
2022/05/19 13:21:24;;;;;;;16.35;4.32;;;;;;;;;;5011352;28;20026;-76
2022/05/19 13:23:51;;;;;;;15.93;4.53;;;;;;;;;;5010449;28;20088;-74
2022/05/19 13:26:27;;;;;;;11.98;4.32;;;;;;;;;;5011230;28;20120;-75
2022/05/19 13:32:00;;;;;;;12.15;4.20;;;;;;;;;;5011603;28;20071;-73
2022/05/19 13:34:46;;;;;;;11.95;4.70;;;;;;;;;;5011227;28;20125;-75
2022/05/19 13:37:13;;;;;;;13.77;4.38;;;;;;;;;;5010816;28;20030;-72
2022/05/19 13:39:39;;;;;;;13.35;4.32;;;;;;;;;;5011204;28;20049;-73
2022/05/19 13:42:09;;;;;;;13.82;4.43;;;;;;;;;;5011091;28;20104;-73
2022/05/19 13:44:42;;;;;;;15.10;4.67;;;;;;;;;;5010743;28;20038;-76
2022/05/19 13:47:12;;;;;;;12.35;4.18;;;;;;;;;;5011203;28;20554;-72
2022/05/19 13:49:38;;;;;;;12.57;4.32;;;;;;;;;;5011376;28;20018;-74
2022/05/19 13:52:08;;;;;;;13.52;5.10;;;;;;;;;;5011020;28;20401;-74
2022/05/19 13:54:46;;;;;;;;;;;;;;;;;;5011389;28;20440;-72
2022/05/19 13:57:36;;;;;;;15.43;4.55;;;;;;;;;;5010668;28;20008;-72
2022/05/19 14:00:07;;;;;;;15.93;4.60;;;;;;;;;;5011056;28;20030;-72
2022/05/19 14:02:36;;;;;;;13.77;4.60;;;;;;;;;;5010887;28;20030;-73
2022/05/19 14:05:09;;;;;;;17.80;4.47;;;;;;;;;;5010677;28;20072;-71
2022/05/19 14:07:37;;;;;;;18.75;4.95;;;;;;;;;;5010608;28;20089;-74
2022/05/19 14:10:15;;;;;;;13.98;4.88;;;;;;;;;;5010684;28;20022;-75
2022/05/19 14:12:47;;;;;;;14.30;4.95;;;;;;;;;;5010854;28;20038;-76
2022/05/19 14:15:16;;;;;;;18.25;4.90;;;;;;;;;;5010287;28;20121;-68
2022/05/19 14:18:00;;;;;;;16.45;4.78;;;;;;;;;;5010227;28;20026;-71
2022/05/19 14:20:42;;;;;;;19.23;4.80;;;;;;;;;;5010299;28;20476;-71
2022/05/19 14:23:17;;;;;;;11.73;4.57;;;;;;;;;;5010493;28;20501;-76
2022/05/19 14:25:44;;;;;;;13.85;4.95;;;;;;;;;;5010843;28;20046;-70
2022/05/19 14:28:24;;;;;;;14.82;4.78;;;;;;;;;;5010271;28;20026;-74
2022/05/19 14:30:53;;;;;;;15.48;4.93;;;;;;;;;;5010827;28;20248;-75
2022/05/19 14:33:21;;;;;;;12.57;4.35;;;;;;;;;;5010235;28;20543;-75
2022/05/19 14:35:50;;;;;;;16.92;4.72;;;;;;;;;;5009823;28;20037;-71
2022/05/19 14:38:44;;;;;;;13.80;4.65;;;;;;;;;;5009972;28;20417;-67
2022/05/19 14:44:10;;;;;;;14.07;4.85;;;;;;;;;;5010248;28;20187;-71
2022/05/19 14:46:45;;;;;;;16.05;4.78;;;;;;;;;;5010265;28;20050;-68
2022/05/19 14:49:15;;;;;;;11.98;4.90;;;;;;;;;;5010087;28;20033;-72
2022/05/19 14:51:44;;;;;;;16.63;5.38;;;;;;;;;;5010011;28;20030;-69
2022/05/19 14:54:14;;;;;;;13.52;4.60;;;;;;;;;;5010039;28;20511;-67
2022/05/19 14:56:59;;;;;;;19.77;4.63;;;;;;;;;;5008745;28;20469;-67
2022/05/19 14:59:32;;;;;;;16.35;4.65;;;;;;;;;;5009810;28;20118;-69
2022/05/19 15:01:58;;;;;;;14.38;4.75;;;;;;;;;;5009990;28;20045;-74
2022/05/19 15:04:23;;;;;;;13.00;4.53;;;;;;;;;;5010286;28;20026;-74
2022/05/19 15:06:49;;;;;;;15.15;4.63;;;;;;;;;;5008540;28;20059;-74
2022/05/19 15:09:14;;;;;;;16.95;4.38;;;;;;;;;;5010033;28;20397;-70
2022/05/19 15:11:40;;;;;;;15.13;4.80;;;;;;;;;;5009970;28;20273;-71
2022/05/19 15:14:06;;;;;;;16.40;4.78;;;;;;;;;;5009860;28;20113;-67
2022/05/19 15:16:31;;;;;;;15.70;4.60;;;;;;;;;;5009806;28;20080;-74
2022/05/19 15:18:57;;;;;;;16.50;4.97;;;;;;;;;;5008422;28;20523;-72
2022/05/19 15:21:23;;;;;;;14.60;4.78;;;;;;;;;;5009805;28;20057;-72
2022/05/19 15:23:49;;;;;;;14.27;5.00;;;;;;;;;;5010047;28;20065;-74
2022/05/19 15:26:14;;;;;;;16.73;4.80;;;;;;;;;;5009820;28;20269;-75
2022/05/19 15:28:42;;;;;;;12.73;4.47;;;;;;;;;;5009508;28;20058;-69